createdAt,value
2018-09-08T00:02:07.590Z,15.65
2018-09-08T00:04:35.665Z,15.60
2018-09-08T00:07:09.127Z,15.48
2018-09-08T00:09:37.208Z,15.51
2018-09-08T00:12:05.383Z,15.65
2018-09-08T00:14:32.831Z,15.50
2018-09-08T00:17:06.175Z,15.33
2018-09-08T00:19:39.654Z,15.43
2018-09-08T00:22:12.864Z,15.22
2018-09-08T00:24:46.212Z,15.34
2018-09-08T00:27:13.496Z,15.53
2018-09-08T00:29:47.774Z,15.62
2018-09-08T00:32:16.111Z,15.40
2018-09-08T00:34:44.222Z,15.29
2018-09-08T00:37:12.304Z,15.17
2018-09-08T00:39:42.383Z,15.02
2018-09-08T00:42:10.595Z,14.61
2018-09-08T00:44:38.767Z,14.69
2018-09-08T00:47:06.824Z,14.77
2018-09-08T00:49:34.895Z,14.80
2018-09-08T00:52:02.952Z,14.73
2018-09-08T00:54:31.036Z,14.64
2018-09-08T00:56:59.120Z,14.45
2018-09-08T00:59:27.202Z,14.31
2018-09-08T01:01:55.348Z,14.25
2018-09-08T01:04:23.410Z,14.21
2018-09-08T01:06:51.487Z,13.99
2018-09-08T01:09:19.551Z,13.78
2018-09-08T01:11:47.775Z,13.80
2018-09-08T01:14:15.851Z,13.46
2018-09-08T01:16:43.931Z,13.56
2018-09-08T01:19:14.813Z,13.32
2018-09-08T01:21:43.498Z,13.41
2018-09-08T01:24:11.657Z,13.00
2018-09-08T01:26:39.737Z,12.95
2018-09-08T01:29:07.803Z,13.05
2018-09-08T01:31:35.876Z,13.08
2018-09-08T01:34:03.936Z,12.96
2018-09-08T01:36:32.007Z,12.75
2018-09-08T01:39:00.136Z,12.70
2018-09-08T01:41:28.200Z,12.48
2018-09-08T01:43:56.263Z,12.47
2018-09-08T01:46:24.353Z,12.48
2018-09-08T01:48:52.430Z,12.57
2018-09-08T01:51:20.529Z,12.53
2018-09-08T01:53:48.579Z,12.55
2018-09-08T01:56:16.655Z,12.23
2018-09-08T01:58:44.756Z,11.99
2018-09-08T02:01:12.845Z,11.75
2018-09-08T02:03:40.929Z,11.83
2018-09-08T02:06:09.099Z,11.90
2018-09-08T02:08:37.170Z,11.95
2018-09-08T02:11:05.274Z,12.06
2018-09-08T02:13:33.388Z,12.05
2018-09-08T02:16:01.451Z,12.01
2018-09-08T02:18:29.533Z,12.06
2018-09-08T02:20:57.600Z,11.89
2018-09-08T02:23:25.731Z,11.41
2018-09-08T02:25:53.807Z,11.28
2018-09-08T02:28:21.859Z,11.21
2018-09-08T02:30:49.923Z,11.24
2018-09-08T02:33:18.024Z,11.41
2018-09-08T02:35:46.079Z,11.25
2018-09-08T02:38:14.149Z,11.31
2018-09-08T02:40:42.231Z,11.36
2018-09-08T02:43:10.288Z,11.13
2018-09-08T02:45:38.363Z,11.08
2018-09-08T02:48:06.438Z,11.03
2018-09-08T02:50:34.698Z,11.06
2018-09-08T02:53:02.429Z,11.14
2018-09-08T02:55:30.002Z,11.18
2018-09-08T02:57:57.580Z,11.01
2018-09-08T03:00:25.109Z,10.82
2018-09-08T03:02:52.454Z,10.85
2018-09-08T03:05:19.559Z,10.81
2018-09-08T03:07:46.699Z,10.75
2018-09-08T03:10:13.924Z,10.71
2018-09-08T03:12:41.023Z,10.72
2018-09-08T03:15:08.130Z,10.61
2018-09-08T03:17:35.221Z,10.69
2018-09-08T03:20:02.715Z,10.65
2018-09-08T03:22:29.899Z,10.62
2018-09-08T03:24:56.963Z,10.43
2018-09-08T03:27:24.030Z,10.50
2018-09-08T03:29:51.111Z,10.49
2018-09-08T03:32:18.190Z,10.57
2018-09-08T03:34:45.255Z,10.45
2018-09-08T03:37:12.324Z,10.29
2018-09-08T03:39:39.391Z,10.29
2018-09-08T03:42:06.514Z,10.31
2018-09-08T03:44:33.606Z,10.13
2018-09-08T03:47:00.679Z,9.96
2018-09-08T03:49:27.730Z,9.88
2018-09-08T03:51:54.796Z,9.82
2018-09-08T03:54:21.869Z,9.93
2018-09-08T03:56:48.932Z,9.84
2018-09-08T03:59:16.009Z,9.82
2018-09-08T04:01:43.087Z,9.83
2018-09-08T04:04:11.155Z,9.74
2018-09-08T04:06:39.219Z,9.82
2018-09-08T04:09:09.071Z,9.88
2018-09-08T04:11:37.264Z,9.70
2018-09-08T04:14:05.372Z,9.55
2018-09-08T04:16:33.460Z,9.50
2018-09-08T04:19:01.545Z,9.51
2018-09-08T04:21:29.622Z,9.40
2018-09-08T04:23:57.761Z,9.33
2018-09-08T04:26:25.835Z,9.35
2018-09-08T04:28:53.955Z,9.33
2018-09-08T04:31:22.074Z,9.29
2018-09-08T04:33:50.143Z,9.28
2018-09-08T04:36:18.223Z,9.39
2018-09-08T04:38:46.287Z,9.59
2018-09-08T04:41:14.348Z,9.59
2018-09-08T04:43:42.408Z,9.55
2018-09-08T04:46:10.476Z,9.57
2018-09-08T04:48:38.557Z,9.60
2018-09-08T04:51:06.925Z,9.46
2018-09-08T04:53:34.989Z,9.52
2018-09-08T04:56:03.073Z,9.44
2018-09-08T04:58:31.130Z,9.31
2018-09-08T05:00:59.393Z,9.11
2018-09-08T05:03:27.624Z,8.98
2018-09-08T05:05:55.689Z,9.12
2018-09-08T05:08:23.756Z,9.22
2018-09-08T05:10:51.855Z,9.27
2018-09-08T05:13:19.915Z,9.41
2018-09-08T05:15:47.953Z,9.26
2018-09-08T05:18:16.060Z,9.10
2018-09-08T05:20:44.141Z,9.05
2018-09-08T05:23:12.226Z,9.16
2018-09-08T05:25:40.481Z,9.26
2018-09-08T05:28:08.588Z,9.28
2018-09-08T05:30:36.631Z,9.46
2018-09-08T05:33:04.759Z,9.57
2018-09-08T05:35:32.832Z,9.54
2018-09-08T05:38:00.897Z,9.70
2018-09-08T05:40:28.968Z,9.82
2018-09-08T05:42:57.090Z,9.88
2018-09-08T05:45:25.115Z,9.90
2018-09-08T05:47:53.379Z,9.98
2018-09-08T05:50:21.531Z,10.15
2018-09-08T05:52:49.627Z,10.22
2018-09-08T05:55:17.682Z,10.31
2018-09-08T05:57:45.804Z,10.38
2018-09-08T06:00:13.876Z,10.53
2018-09-08T06:02:41.997Z,10.67
2018-09-08T06:05:10.072Z,10.85
2018-09-08T06:07:38.164Z,10.93
2018-09-08T06:10:06.404Z,11.06
2018-09-08T06:12:34.419Z,11.21
2018-09-08T06:15:02.509Z,11.33
2018-09-08T06:17:30.655Z,11.42
2018-09-08T06:19:58.673Z,11.56
2018-09-08T06:22:26.817Z,11.69
2018-09-08T06:24:54.884Z,11.78
2018-09-08T06:27:22.964Z,11.90
2018-09-08T06:29:51.028Z,12.00
2018-09-08T06:32:19.128Z,12.12
2018-09-08T06:34:47.221Z,12.28
2018-09-08T06:37:15.312Z,12.40
2018-09-08T06:39:43.393Z,12.72
2018-09-08T06:42:11.518Z,12.94
2018-09-08T06:44:39.695Z,13.01
2018-09-08T06:47:07.755Z,13.02
2018-09-08T06:49:35.798Z,13.18
2018-09-08T06:52:03.933Z,13.29
2018-09-08T06:54:38.236Z,13.30
2018-09-08T06:57:06.319Z,13.47
2018-09-08T06:59:34.395Z,13.38
2018-09-08T07:02:02.472Z,13.54
2018-09-08T07:04:35.035Z,13.73
2018-09-08T07:07:03.121Z,13.71
2018-09-08T07:09:31.242Z,13.74
2018-09-08T07:11:59.323Z,13.77
2018-09-08T07:14:27.407Z,13.89
2018-09-08T07:16:55.497Z,14.18
2018-09-08T07:19:23.641Z,14.27
2018-09-08T07:21:51.703Z,14.30
2018-09-08T07:24:19.779Z,14.33
2018-09-08T07:26:47.904Z,14.36
2018-09-08T07:29:16.014Z,14.45
2018-09-08T07:31:44.097Z,14.54
2018-09-08T07:34:12.193Z,14.56
2018-09-08T07:36:40.272Z,14.72
2018-09-08T07:39:09.820Z,14.72
2018-09-08T07:41:37.924Z,14.83
2018-09-08T07:44:06.395Z,14.94
2018-09-08T07:49:08.906Z,15.21
2018-09-08T07:51:37.006Z,15.15
2018-09-08T07:54:05.120Z,15.38
2018-09-08T07:56:33.138Z,15.36
2018-09-08T07:59:01.311Z,15.47
2018-09-08T08:01:29.547Z,15.49
2018-09-08T08:03:57.622Z,15.48
2018-09-08T08:06:26.528Z,15.63
2018-09-08T08:08:54.716Z,15.61
2018-09-08T08:11:22.771Z,15.61
2018-09-08T08:13:51.235Z,15.64
2018-09-08T08:16:19.305Z,15.76
2018-09-08T08:18:47.445Z,15.79
2018-09-08T08:21:15.584Z,15.78
2018-09-08T08:23:43.663Z,15.94
2018-09-08T08:26:11.731Z,15.97
2018-09-08T08:28:39.811Z,15.97
2018-09-08T08:31:08.150Z,16.19
2018-09-08T08:33:36.167Z,16.21
2018-09-08T08:36:04.231Z,16.32
2018-09-08T08:38:32.309Z,16.32
2018-09-08T08:41:00.392Z,16.33
2018-09-08T08:43:29.872Z,16.63
2018-09-08T08:45:57.958Z,16.74
2018-09-08T08:48:26.056Z,16.66
2018-09-08T08:51:05.366Z,16.76
2018-09-08T08:53:45.002Z,16.95
2018-09-08T08:56:13.055Z,16.99
2018-09-08T08:58:41.140Z,17.09
2018-09-08T09:01:09.220Z,17.09
2018-09-08T09:03:37.328Z,17.03
2018-09-08T09:06:05.442Z,17.07
2018-09-08T09:08:34.073Z,16.96
2018-09-08T09:11:01.643Z,17.18
2018-09-08T09:13:29.788Z,17.28
2018-09-08T09:15:57.773Z,17.33
2018-09-08T09:18:38.143Z,17.44
2018-09-08T09:21:17.511Z,17.49
2018-09-08T09:25:05.615Z,17.47
2018-09-08T09:27:35.027Z,17.44
2018-09-08T09:30:03.334Z,17.55
2018-09-08T09:32:31.525Z,17.63
2018-09-08T09:34:59.599Z,17.68
2018-09-08T09:37:27.837Z,17.62
2018-09-08T09:39:56.608Z,17.69
2018-09-08T09:42:24.663Z,17.79
2018-09-08T09:44:52.809Z,17.96
2018-09-08T09:47:20.936Z,18.24
2018-09-08T09:49:49.052Z,18.18
2018-09-08T09:52:17.133Z,18.17
2018-09-08T09:54:45.222Z,18.18
2018-09-08T10:01:02.262Z,18.18
2018-09-08T10:03:30.263Z,18.33
2018-09-08T10:05:58.389Z,18.58
2018-09-08T10:08:26.473Z,18.42
2018-09-08T10:10:54.571Z,18.51
2018-09-08T10:13:22.672Z,18.52
2018-09-08T10:15:50.774Z,18.60
2018-09-08T10:18:18.873Z,18.62
2018-09-08T10:20:46.944Z,18.82
2018-09-08T10:23:15.074Z,18.89
2018-09-08T10:25:43.136Z,19.05
2018-09-08T10:28:11.197Z,19.25
2018-09-08T10:30:39.338Z,19.27
2018-09-08T10:33:07.340Z,19.15
2018-09-08T10:35:35.407Z,19.24
2018-09-08T10:38:03.467Z,19.20
2018-09-08T10:40:31.576Z,19.38
2018-09-08T10:42:59.671Z,19.45
2018-09-08T10:45:27.796Z,19.36
2018-09-08T10:47:55.868Z,19.31
2018-09-08T10:50:23.955Z,19.19
2018-09-08T10:52:52.031Z,19.22
2018-09-08T10:55:20.251Z,19.39
2018-09-08T10:57:48.319Z,19.36
2018-09-08T11:00:16.717Z,19.36
2018-09-08T11:02:45.132Z,19.67
2018-09-08T11:05:12.878Z,19.64
2018-09-08T11:07:40.964Z,19.69
2018-09-08T11:10:09.074Z,19.79
2018-09-08T11:12:37.179Z,19.90
2018-09-08T11:15:06.228Z,19.70
2018-09-08T11:17:34.373Z,19.93
2018-09-08T11:20:02.520Z,19.96
2018-09-08T11:22:30.776Z,20.09
2018-09-08T11:24:58.883Z,20.02
2018-09-08T11:27:26.977Z,20.09
2018-09-08T11:29:55.055Z,20.03
2018-09-08T11:32:23.124Z,20.13
2018-09-08T11:34:51.216Z,20.19
2018-09-08T11:37:19.297Z,20.33
2018-09-08T11:39:47.416Z,20.48
2018-09-08T11:42:15.480Z,20.44
2018-09-08T11:44:43.573Z,20.34
2018-09-08T11:47:11.638Z,20.41
2018-09-08T11:49:39.792Z,20.52
2018-09-08T11:52:14.555Z,20.55
2018-09-08T11:54:42.647Z,20.54
2018-09-08T11:57:10.721Z,20.59
2018-09-08T11:59:38.862Z,20.75
2018-09-08T12:02:06.907Z,20.80
2018-09-08T12:04:35.046Z,20.83
2018-09-08T12:07:03.191Z,20.85
2018-09-08T12:09:31.300Z,20.83
2018-09-08T12:11:59.392Z,21.01
2018-09-08T12:14:27.511Z,21.01
2018-09-08T12:16:55.631Z,21.04
2018-09-08T12:19:23.729Z,21.19
2018-09-08T12:21:51.816Z,21.22
2018-09-08T12:24:19.894Z,21.17
2018-09-08T12:26:48.041Z,21.11
2018-09-08T12:29:16.144Z,21.12
2018-09-08T12:31:44.246Z,21.03
2018-09-08T12:34:12.315Z,21.02
2018-09-08T12:36:40.397Z,21.33
2018-09-08T12:39:08.895Z,21.29
2018-09-08T12:41:37.018Z,21.28
2018-09-08T12:44:12.942Z,21.60
2018-09-08T12:46:41.186Z,21.49
2018-09-08T12:49:15.479Z,21.51
2018-09-08T12:51:43.637Z,21.60
2018-09-08T12:54:11.913Z,21.63
2018-09-08T12:56:39.979Z,21.53
2018-09-08T12:59:08.093Z,21.68
2018-09-08T13:01:36.160Z,21.67
2018-09-08T13:04:04.219Z,21.78
2018-09-08T13:06:32.296Z,21.98
2018-09-08T13:09:00.359Z,21.79
2018-09-08T13:11:28.457Z,21.90
2018-09-08T13:13:56.531Z,22.04
2018-09-08T13:16:24.628Z,21.83
2018-09-08T13:18:52.733Z,21.86
2018-09-08T13:21:20.803Z,22.09
2018-09-08T13:23:49.003Z,22.21
2018-09-08T13:26:17.152Z,22.12
2018-09-08T13:28:45.228Z,22.13
2018-09-08T13:31:13.401Z,22.07
2018-09-08T13:33:41.458Z,22.30
2018-09-08T13:36:09.579Z,22.39
2018-09-08T13:38:37.648Z,22.37
2018-09-08T13:41:05.780Z,22.42
2018-09-08T13:43:33.866Z,22.45
2018-09-08T13:46:01.953Z,22.36
2018-09-08T13:48:30.053Z,22.37
2018-09-08T13:50:58.121Z,22.42
2018-09-08T13:53:26.239Z,22.58
2018-09-08T13:55:54.335Z,22.46
2018-09-08T13:58:22.411Z,22.43
2018-09-08T14:00:50.477Z,22.53
2018-09-08T14:03:18.549Z,22.46
2018-09-08T14:05:46.619Z,22.51
2018-09-08T14:08:16.063Z,22.52
2018-09-08T14:10:45.044Z,22.58
2018-09-08T14:13:13.148Z,22.55
2018-09-08T14:15:41.232Z,22.64
2018-09-08T14:18:09.304Z,22.67
2018-09-08T14:20:37.371Z,22.67
2018-09-08T14:23:05.764Z,22.63
2018-09-08T14:25:33.862Z,22.65
2018-09-08T14:28:01.943Z,22.60
2018-09-08T14:30:30.033Z,22.66
2018-09-08T14:32:58.217Z,22.58
2018-09-08T14:35:26.425Z,22.69
2018-09-08T14:37:54.491Z,22.78
2018-09-08T14:40:22.552Z,22.74
2018-09-08T14:55:31.307Z,22.86
2018-09-08T14:57:59.425Z,22.90
2018-09-08T15:00:27.955Z,22.96
2018-09-08T15:02:56.344Z,22.97
2018-09-08T15:05:24.422Z,23.06
2018-09-08T15:07:52.497Z,23.01
2018-09-08T15:10:20.552Z,23.07
2018-09-08T15:12:48.631Z,23.08
2018-09-08T15:15:16.792Z,22.80
2018-09-08T15:17:44.885Z,22.92
2018-09-08T15:20:12.976Z,22.95
2018-09-08T15:22:41.048Z,22.78
2018-09-08T15:25:09.161Z,22.97
2018-09-08T15:27:37.236Z,23.08
2018-09-08T15:30:05.324Z,23.16
2018-09-08T15:32:33.422Z,23.21
2018-09-08T15:35:01.482Z,23.06
2018-09-08T15:37:29.551Z,22.98
2018-09-08T15:39:57.623Z,23.04
2018-09-08T15:42:25.744Z,23.19
2018-09-08T15:44:53.843Z,23.26
2018-09-08T15:47:22.008Z,23.34
2018-09-08T15:49:50.127Z,23.19
2018-09-08T15:52:18.205Z,23.26
2018-09-08T15:54:46.335Z,23.24
2018-09-08T15:57:14.411Z,23.42
2018-09-08T15:59:42.511Z,23.48
2018-09-08T16:02:10.586Z,23.40
2018-09-08T16:04:38.639Z,23.43
2018-09-08T16:07:06.844Z,23.34
2018-09-08T16:09:34.947Z,23.10
2018-09-08T16:12:03.013Z,23.18
2018-09-08T16:14:31.214Z,23.01
2018-09-08T16:16:59.203Z,23.00
2018-09-08T16:19:27.288Z,22.98
2018-09-08T16:21:55.377Z,22.78
2018-09-08T16:24:23.464Z,22.92
2018-09-08T16:26:51.516Z,22.81
2018-09-08T16:29:19.567Z,22.72
2018-09-08T16:31:47.667Z,22.62
2018-09-08T16:34:15.775Z,22.57
2018-09-08T16:36:43.847Z,22.73
2018-09-08T16:39:12.847Z,22.82
2018-09-08T16:41:40.951Z,22.74
2018-09-08T16:44:09.431Z,22.62
2018-09-08T16:46:37.511Z,22.57
2018-09-08T16:49:05.870Z,22.46
2018-09-08T16:51:33.913Z,22.47
2018-09-08T16:54:01.981Z,22.47
2018-09-08T16:56:30.069Z,22.42
2018-09-08T16:58:58.220Z,22.47
2018-09-08T17:01:26.316Z,22.39
2018-09-08T17:03:54.420Z,22.19
2018-09-08T17:06:22.486Z,22.14
2018-09-08T17:08:50.561Z,22.12
2018-09-08T17:11:18.627Z,22.01
2018-09-08T17:13:46.684Z,22.04
2018-09-08T17:16:14.755Z,22.07
2018-09-08T17:18:42.799Z,22.01
2018-09-08T17:21:10.876Z,21.98
2018-09-08T17:23:38.947Z,21.88
2018-09-08T17:26:07.023Z,21.80
2018-09-08T17:28:35.176Z,21.81
2018-09-08T17:31:03.232Z,21.78
2018-09-08T17:33:31.347Z,21.76
2018-09-08T17:35:59.435Z,21.71
2018-09-08T17:38:27.538Z,21.61
2018-09-08T17:40:55.599Z,21.52
2018-09-08T17:43:23.685Z,21.43
2018-09-08T17:45:51.872Z,21.37
2018-09-08T17:48:20.079Z,21.29
2018-09-08T17:50:48.171Z,21.22
2018-09-08T17:53:16.247Z,21.11
2018-09-08T17:55:44.312Z,21.08
2018-09-08T17:58:12.415Z,21.00
2018-09-08T18:00:40.471Z,20.91
2018-09-08T18:03:08.680Z,20.83
2018-09-08T18:05:36.765Z,20.86
2018-09-08T18:08:04.815Z,20.77
2018-09-08T18:10:32.937Z,20.66
2018-09-08T18:13:01.003Z,20.58
2018-09-08T18:15:29.074Z,20.57
2018-09-08T18:17:57.151Z,20.50
2018-09-08T18:20:25.232Z,20.44
2018-09-08T18:22:53.401Z,20.39
2018-09-08T18:25:21.452Z,20.34
2018-09-08T18:27:49.582Z,20.31
2018-09-08T18:30:17.659Z,20.29
2018-09-08T18:32:45.971Z,20.21
2018-09-08T18:35:15.125Z,20.16
2018-09-08T18:37:43.415Z,20.12
2018-09-08T18:40:11.629Z,20.08
2018-09-08T18:42:40.500Z,20.01
2018-09-08T18:45:10.538Z,19.98
2018-09-08T18:47:39.316Z,19.94
2018-09-08T18:50:07.598Z,19.88
2018-09-08T18:52:35.827Z,19.79
2018-09-08T18:55:04.072Z,19.69
2018-09-08T18:57:32.270Z,19.70
2018-09-08T19:02:52.330Z,19.61
2018-09-08T19:05:20.654Z,19.57
2018-09-08T19:07:48.954Z,19.49
2018-09-08T19:10:23.249Z,19.50
2018-09-08T19:12:54.494Z,19.44
2018-09-08T19:15:22.678Z,19.39
2018-09-08T19:17:50.871Z,19.27
2018-09-08T19:20:25.021Z,19.26
2018-09-08T19:22:53.627Z,19.20
2018-09-08T19:25:21.868Z,19.16
2018-09-08T19:27:50.119Z,19.09
2018-09-08T19:30:18.410Z,19.08
2018-09-08T19:32:46.613Z,19.08
2018-09-08T19:35:26.908Z,19.01
2018-09-08T19:37:57.023Z,18.97
2018-09-08T19:40:31.421Z,18.96
2018-09-08T19:42:59.942Z,18.93
2018-09-08T19:45:28.174Z,18.86
2018-09-08T19:48:01.663Z,18.84
2018-09-08T19:50:29.846Z,18.75
2018-09-08T19:53:03.462Z,18.71
2018-09-08T19:55:32.504Z,18.68
2018-09-08T19:58:06.236Z,18.62
2018-09-08T20:00:35.851Z,18.55
2018-09-08T20:03:04.696Z,18.32
2018-09-08T20:05:32.923Z,18.33
2018-09-08T20:08:01.973Z,18.36
2018-09-08T20:10:30.175Z,18.36
2018-09-08T20:12:58.463Z,18.36
2018-09-08T20:15:26.764Z,18.34
2018-09-08T20:17:54.988Z,18.25
2018-09-08T20:20:23.172Z,18.21
2018-09-08T20:22:51.412Z,18.20
2018-09-08T20:25:19.610Z,18.08
2018-09-08T20:27:47.870Z,18.06
2018-09-08T20:30:16.118Z,18.03
2018-09-08T20:32:44.398Z,17.82
2018-09-08T20:35:12.599Z,17.85
2018-09-08T20:37:40.997Z,17.78
2018-09-08T20:40:10.420Z,17.77
2018-09-08T20:42:40.604Z,17.75
2018-09-08T20:45:08.805Z,17.74
2018-09-08T20:47:37.045Z,17.67
2018-09-08T20:50:06.425Z,17.67
2018-09-08T20:52:34.679Z,17.62
2018-09-08T20:55:02.977Z,17.50
2018-09-08T20:57:32.330Z,17.43
2018-09-08T21:00:01.586Z,17.52
2018-09-08T21:02:29.861Z,17.52
2018-09-08T21:04:58.127Z,17.47
2018-09-08T21:07:26.523Z,17.30
2018-09-08T21:09:54.762Z,17.23
2018-09-08T21:12:23.960Z,17.30
2018-09-08T21:14:52.198Z,17.28
2018-09-08T21:17:20.411Z,17.20
2018-09-08T21:19:48.707Z,17.14
2018-09-08T21:22:16.893Z,17.04
2018-09-08T21:24:45.092Z,16.90
2018-09-08T21:27:14.106Z,16.87
2018-09-08T21:29:42.354Z,16.85
2018-09-08T21:32:10.532Z,16.88
2018-09-08T21:34:39.570Z,16.92
2018-09-08T21:37:08.622Z,16.75
2018-09-08T21:39:36.869Z,16.81
2018-09-08T21:42:05.304Z,16.86
2018-09-08T21:44:57.279Z,16.73
2018-09-08T21:47:25.526Z,16.69
2018-09-08T21:49:53.761Z,16.60
2018-09-08T21:52:21.932Z,16.67
2018-09-08T21:54:50.540Z,16.62
2018-09-08T21:57:19.786Z,16.64
2018-09-08T21:59:48.098Z,16.59
2018-09-08T22:02:17.615Z,16.59
2018-09-08T22:04:46.504Z,16.47
2018-09-08T22:07:14.683Z,16.40
2018-09-08T22:09:43.224Z,16.15
2018-09-08T22:12:12.209Z,16.31
2018-09-08T22:14:41.102Z,16.32
2018-09-08T22:17:09.362Z,16.26
2018-09-08T22:19:37.727Z,16.26
2018-09-08T22:22:06.002Z,16.21
2018-09-08T22:24:34.326Z,16.19
2018-09-08T22:27:02.723Z,16.03
2018-09-08T22:29:30.891Z,16.00
2018-09-08T22:31:59.113Z,15.91
2018-09-08T22:34:27.322Z,15.91
2018-09-08T22:36:55.680Z,15.90
2018-09-08T22:39:24.574Z,16.00
2018-09-08T22:41:53.238Z,15.94
2018-09-08T22:44:21.545Z,15.90
2018-09-08T22:46:50.679Z,15.85
2018-09-08T22:49:18.934Z,15.80
2018-09-08T22:51:47.579Z,15.58
2018-09-08T22:54:15.814Z,15.31
2018-09-08T22:56:44.024Z,15.31
2018-09-08T22:59:12.478Z,15.44
2018-09-08T23:01:40.711Z,15.29
2018-09-08T23:04:08.969Z,15.07
2018-09-08T23:06:37.476Z,14.93
2018-09-08T23:09:07.362Z,14.82
2018-09-08T23:11:35.871Z,14.70
2018-09-08T23:14:04.038Z,14.63
2018-09-08T23:16:32.354Z,14.64
2018-09-08T23:19:00.769Z,14.79
2018-09-08T23:21:29.632Z,15.02
2018-09-08T23:23:58.419Z,15.03
2018-09-08T23:26:27.960Z,15.03
2018-09-08T23:28:57.087Z,15.06
2018-09-08T23:31:25.672Z,15.11
2018-09-08T23:33:54.003Z,15.08
2018-09-08T23:36:22.704Z,15.05
2018-09-08T23:38:51.184Z,15.10
2018-09-08T23:41:19.508Z,15.03
2018-09-08T23:43:47.781Z,15.03
2018-09-08T23:46:16.068Z,14.88
2018-09-08T23:48:44.500Z,14.80
2018-09-08T23:51:12.678Z,14.74
2018-09-08T23:53:41.155Z,14.70
2018-09-08T23:56:09.598Z,14.79
2018-09-08T23:58:37.863Z,14.84
